Archival Weather

Chicago O'Hare International

Chicago, Illinois (KORD)

Report from: Wednesday, November 23, 2022 5:51 AM CST
Current time: Monday, July 22, 2024 6:53 AM CDT

Current weather – Weather history – Daily summaries
Weather forecast

Temperature1.7°C (35.1°F)
Wind chill-1.1°C (30.1°F)
Dew point-2.2°C (28.0°F)
Winds 5 kts (2.6 m/s, 5.8 mph) South-Southwest (210°)
Visibility10 mi. (16.1 km)
Clouds Sky clear
Altimeter30.13 in.Hg (1020 mB)
Relative humidity75 %
Density altitude-1,793 ft. (-546 m)
Sea-level pressure102.1 kPa (1021 mB, 30.14 in.Hg)
Max temp last 6 hours3.3°C (37.9°F)
Min temp last 6 hours1.7°C (35.1°F)
Remarks Automated weather observing station with precipitation discriminator
Pressure rising more quickly
Flight conditions Visual Meteorological Conditions
Raw dataKORD 231151Z 21005KT 10SM CLR 02/M02 A3013 RMK AO2 SLP207 T00171022 10033 20017 53002
An error has occurred. This application may no longer respond until reloaded. Reload 🗙